Aérodrome :
LOGIN :

S'inscrire | Disclaimer

   EN    FR    IT 

 










Légende :    VFR   VFR Marginal   IFR   IFR Intensif   IFR Très Intensif
Visi : 
Plafond : 
>= 8 km
>= 3000ft
5 à 8 km
1000 à 3000 ft
1500m à 5 km
500 à 1000 ft
800 à 1500m
200 à 500 ft
< 800m
< 200 ft
Symboles :   Orages  Brouillard  Fortes neiges  Fortes précipitations  Vent > 20 kt
SIGMETs :   Divers  Orages  Givrage  Turbulence  Onde Orograph.  Cendres Volcan.







- Altitude de l'aérodrome : 13 ft
- Code IATA : SNR
- Voir les cartes d'approche


LFRZ - St-Nazaire

DERNIER METAR :
  • 160530Z AUTO 32001KT 0300 0200 R25/0350N FG VV/// 05/04 Q1026 BECMG 3000 BR BKN003

METARs EXPIRÉS :
  • 160500Z AUTO 00000KT 0250 0150 R25/0325N FG VV/// 04/03 Q1025 NOSIG
  • 160430Z AUTO 04001KT 0200 0100 R25/0325N FG VV/// 03/03 Q1025 NOSIG
  • 160400Z AUTO 09002KT 0350 R25/0400N FG VV/// 02/02 Q1025 NOSIG
  • 160330Z AUTO 00000KT 0750 0600 R25/1000U FG VV/// 03/02 Q1025 TEMPO 0200 FG
  • 160300Z AUTO VRB03KT 1000 0400 R25/0650U BCFG BKN005 02/01 Q1026 TEMPO 0200 FG VV///

TAF TAF LFRZ
Valide du 16 à 06h jusqu'au 17 à 06h UTC


160500Z 1606/1706 10004KT 0200 FG VV///
BECMG 1607/1609 3000 BR BKN003
BECMG 1609/1612 CAVOK
PROB30
TEMPO 1622/1701 2000 BR
BECMG 1701/1703 16010KT
Pas de NOTAMs connus pour ce terrain.



MET'MAP, la Météo Aéronautique d'un coup d'oeil ! - Copyright ORBIFLY Décembre 2007 - Disclaimer

ORBIFLY MET'MAP TEAM :

Programmation & Développement : Alexandra Zaïnal
Conception & Développement : Baudouin d'Aumeries
Co-Programmation & Développement : Marc-Olivier Méhu
Soutien technique & logistique : Manuel Goepfert

Contact : metmap@orbifly.com




SOURCES & CREDITS :

   NOAA